Terminal Aerodrome Forecast
Issued by NWS Sioux Falls, SD

Home | Current Version | Previous Version | Graphics & Text | Print | Product List | Glossary On
Versions: 1 2 3 4 5 6 7 8 9 10 11 12 13 14 15
000
FTUS43 KFSD 132331
TAFHON
TAF
KHON 132331Z 1400/1424 21012G18KT P6SM SKC
     FM140100 21007KT P6SM SCT200
     FM140800 30005KT P6SM SCT200
     FM141700 34005KT P6SM BKN120=

USA.gov is the U.S. government's official web portal to all federal, state and local government web resources and services.